sensor_id;sensor_type;location;lat;lon;timestamp;pressure;altitude;pressure_sealevel;temperature;humidity
34482;BME280;20720;48.886;9.388;2022-09-03T00:01:24;97991.63;;;18.77;88.89
34482;BME280;20720;48.886;9.388;2022-09-03T00:03:54;97992.78;;;18.96;86.72
34482;BME280;20720;48.886;9.388;2022-09-03T00:06:29;97989.66;;;18.57;87.40
34482;BME280;20720;48.886;9.388;2022-09-03T00:09:02;97990.75;;;19.28;83.17
34482;BME280;20720;48.886;9.388;2022-09-03T00:11:31;97990.00;;;19.48;83.01
34482;BME280;20720;48.886;9.388;2022-09-03T00:13:58;97994.44;;;19.27;83.43
34482;BME280;20720;48.886;9.388;2022-09-03T00:16:27;97985.59;;;19.12;85.02
34482;BME280;20720;48.886;9.388;2022-09-03T00:18:55;97986.19;;;19.19;84.71
34482;BME280;20720;48.886;9.388;2022-09-03T00:21:34;97987.31;;;19.33;84.06
34482;BME280;20720;48.886;9.388;2022-09-03T00:24:00;97980.66;;;19.35;84.21
34482;BME280;20720;48.886;9.388;2022-09-03T00:26:27;97979.78;;;19.25;85.66
34482;BME280;20720;48.886;9.388;2022-09-03T00:28:56;97982.94;;;19.07;90.04
34482;BME280;20720;48.886;9.388;2022-09-03T00:31:24;97983.78;;;19.27;86.03
34482;BME280;20720;48.886;9.388;2022-09-03T00:33:54;97973.88;;;19.08;84.78
34482;BME280;20720;48.886;9.388;2022-09-03T00:36:23;97986.47;;;19.22;85.62
34482;BME280;20720;48.886;9.388;2022-09-03T00:38:50;97985.75;;;19.47;84.10
34482;BME280;20720;48.886;9.388;2022-09-03T00:41:35;97984.13;;;19.41;83.82
34482;BME280;20720;48.886;9.388;2022-09-03T00:46:38;97976.88;;;19.31;83.38
34482;BME280;20720;48.886;9.388;2022-09-03T00:51:41;97979.09;;;19.54;81.38
34482;BME280;20720;48.886;9.388;2022-09-03T00:54:28;97979.63;;;19.82;79.61
34482;BME280;20720;48.886;9.388;2022-09-03T00:59:43;97981.50;;;19.71;80.24
34482;BME280;20720;48.886;9.388;2022-09-03T01:02:19;97977.22;;;19.80;82.79
34482;BME280;20720;48.886;9.388;2022-09-03T01:04:57;97974.81;;;19.99;79.56
34482;BME280;20720;48.886;9.388;2022-09-03T01:13:04;97981.78;;;19.69;82.02
34482;BME280;20720;48.886;9.388;2022-09-03T01:18:40;97974.31;;;19.72;81.99
34482;BME280;20720;48.886;9.388;2022-09-03T01:29:06;97978.28;;;19.89;79.78
34482;BME280;20720;48.886;9.388;2022-09-03T01:36:57;97979.38;;;20.13;79.68
34482;BME280;20720;48.886;9.388;2022-09-03T01:39:37;97977.78;;;19.92;81.14
34482;BME280;20720;48.886;9.388;2022-09-03T01:44:58;97981.25;;;19.83;80.49
34482;BME280;20720;48.886;9.388;2022-09-03T01:50:14;97984.94;;;20.12;79.37
34482;BME280;20720;48.886;9.388;2022-09-03T01:52:45;97986.28;;;20.14;78.55
34482;BME280;20720;48.886;9.388;2022-09-03T01:55:31;97991.38;;;20.26;77.93
34482;BME280;20720;48.886;9.388;2022-09-03T01:58:15;97990.28;;;20.42;77.39
34482;BME280;20720;48.886;9.388;2022-09-03T02:00:44;97987.38;;;19.93;80.46
34482;BME280;20720;48.886;9.388;2022-09-03T02:03:13;97990.56;;;20.25;78.29
34482;BME280;20720;48.886;9.388;2022-09-03T02:05:39;97995.63;;;20.07;79.62
34482;BME280;20720;48.886;9.388;2022-09-03T02:08:08;97999.63;;;20.39;78.05
34482;BME280;20720;48.886;9.388;2022-09-03T02:10:48;98004.13;;;20.54;77.11
34482;BME280;20720;48.886;9.388;2022-09-03T02:16:16;98005.00;;;20.24;79.24
34482;BME280;20720;48.886;9.388;2022-09-03T02:18:45;98000.47;;;20.25;78.69
34482;BME280;20720;48.886;9.388;2022-09-03T02:21:13;97992.19;;;20.26;78.83
34482;BME280;20720;48.886;9.388;2022-09-03T02:23:40;97993.47;;;20.44;78.42
34482;BME280;20720;48.886;9.388;2022-09-03T02:26:06;97989.75;;;20.35;78.95
34482;BME280;20720;48.886;9.388;2022-09-03T02:28:32;97997.25;;;19.93;80.13
34482;BME280;20720;48.886;9.388;2022-09-03T02:30:57;97990.81;;;19.99;81.36
34482;BME280;20720;48.886;9.388;2022-09-03T02:33:23;97996.16;;;19.99;81.13
34482;BME280;20720;48.886;9.388;2022-09-03T02:35:48;97997.75;;;19.75;82.21
34482;BME280;20720;48.886;9.388;2022-09-03T02:38:18;98003.94;;;20.20;81.00
34482;BME280;20720;48.886;9.388;2022-09-03T02:40:44;98012.44;;;20.27;79.89
34482;BME280;20720;48.886;9.388;2022-09-03T02:43:21;98010.81;;;20.51;78.79
34482;BME280;20720;48.886;9.388;2022-09-03T02:45:49;98003.91;;;20.25;79.25
34482;BME280;20720;48.886;9.388;2022-09-03T02:48:15;98004.94;;;20.44;78.82
34482;BME280;20720;48.886;9.388;2022-09-03T02:50:42;98006.31;;;20.42;79.32
34482;BME280;20720;48.886;9.388;2022-09-03T02:53:08;97998.28;;;20.57;78.23
34482;BME280;20720;48.886;9.388;2022-09-03T02:55:33;97993.53;;;20.19;80.41
34482;BME280;20720;48.886;9.388;2022-09-03T02:57:58;97988.16;;;20.14;81.05
34482;BME280;20720;48.886;9.388;2022-09-03T03:00:24;97988.16;;;20.14;81.09
34482;BME280;20720;48.886;9.388;2022-09-03T03:02:49;97997.50;;;19.81;81.80
34482;BME280;20720;48.886;9.388;2022-09-03T03:05:18;97995.38;;;20.23;80.78
34482;BME280;20720;48.886;9.388;2022-09-03T03:07:45;97990.84;;;20.09;81.52
34482;BME280;20720;48.886;9.388;2022-09-03T03:10:10;97988.97;;;20.14;81.39
34482;BME280;20720;48.886;9.388;2022-09-03T03:12:36;97981.75;;;20.05;82.15
34482;BME280;20720;48.886;9.388;2022-09-03T03:15:02;97982.03;;;19.98;82.92
34482;BME280;20720;48.886;9.388;2022-09-03T03:17:27;97988.72;;;20.06;82.87
34482;BME280;20720;48.886;9.388;2022-09-03T03:19:52;97991.38;;;19.86;84.13
34482;BME280;20720;48.886;9.388;2022-09-03T03:22:17;97998.84;;;19.74;85.22
34482;BME280;20720;48.886;9.388;2022-09-03T03:24:43;98016.97;;;19.82;85.23
34482;BME280;20720;48.886;9.388;2022-09-03T03:27:08;98011.09;;;19.69;85.83
34482;BME280;20720;48.886;9.388;2022-09-03T03:29:35;98009.25;;;19.70;85.85
34482;BME280;20720;48.886;9.388;2022-09-03T03:32:00;98007.34;;;19.55;87.21
34482;BME280;20720;48.886;9.388;2022-09-03T03:34:25;98009.47;;;19.63;87.21
34482;BME280;20720;48.886;9.388;2022-09-03T03:36:50;98009.47;;;19.48;88.94
34482;BME280;20720;48.886;9.388;2022-09-03T03:39:15;98011.63;;;19.72;87.24
34482;BME280;20720;48.886;9.388;2022-09-03T03:41:41;98007.09;;;19.62;87.69
34482;BME280;20720;48.886;9.388;2022-09-03T03:44:06;98013.19;;;19.52;89.01
34482;BME280;20720;48.886;9.388;2022-09-03T03:46:33;98006.50;;;19.35;89.35
34482;BME280;20720;48.886;9.388;2022-09-03T03:48:59;98015.34;;;19.60;89.61
34482;BME280;20720;48.886;9.388;2022-09-03T03:51:25;97998.53;;;19.50;90.18
34482;BME280;20720;48.886;9.388;2022-09-03T03:53:52;98006.56;;;19.60;89.43
34482;BME280;20720;48.886;9.388;2022-09-03T03:56:17;98018.03;;;19.60;89.41
34482;BME280;20720;48.886;9.388;2022-09-03T03:58:42;98011.00;;;19.34;91.80
34482;BME280;20720;48.886;9.388;2022-09-03T04:03:33;98014.22;;;19.36;91.50
34482;BME280;20720;48.886;9.388;2022-09-03T04:05:59;98019.50;;;19.31;92.35
34482;BME280;20720;48.886;9.388;2022-09-03T04:08:25;98018.97;;;19.24;92.79
34482;BME280;20720;48.886;9.388;2022-09-03T04:10:50;98023.16;;;19.15;94.13
34482;BME280;20720;48.886;9.388;2022-09-03T04:13:15;98017.34;;;19.18;93.99
34482;BME280;20720;48.886;9.388;2022-09-03T04:15:41;98015.22;;;19.20;94.16
34482;BME280;20720;48.886;9.388;2022-09-03T04:18:06;98011.75;;;19.25;93.73
34482;BME280;20720;48.886;9.388;2022-09-03T04:20:32;98016.75;;;19.06;94.72
34482;BME280;20720;48.886;9.388;2022-09-03T04:23:00;98007.19;;;19.15;95.22
34482;BME280;20720;48.886;9.388;2022-09-03T04:25:26;98004.03;;;19.18;95.84
34482;BME280;20720;48.886;9.388;2022-09-03T04:27:51;98007.69;;;19.02;96.47
34482;BME280;20720;48.886;9.388;2022-09-03T04:30:17;98005.38;;;19.31;95.08
34482;BME280;20720;48.886;9.388;2022-09-03T04:32:42;98010.94;;;19.14;95.49
34482;BME280;20720;48.886;9.388;2022-09-03T04:35:17;98009.31;;;19.08;96.51
34482;BME280;20720;48.886;9.388;2022-09-03T04:37:42;98009.28;;;19.03;97.55
34482;BME280;20720;48.886;9.388;2022-09-03T04:40:07;98011.91;;;18.93;98.71
34482;BME280;20720;48.886;9.388;2022-09-03T04:42:33;98010.34;;;19.02;97.99
34482;BME280;20720;48.886;9.388;2022-09-03T04:44:58;98015.38;;;18.94;98.80
34482;BME280;20720;48.886;9.388;2022-09-03T04:47:23;98014.09;;;19.06;98.50
34482;BME280;20720;48.886;9.388;2022-09-03T04:49:48;98014.63;;;19.03;98.70
34482;BME280;20720;48.886;9.388;2022-09-03T04:52:13;98010.34;;;18.97;99.73
34482;BME280;20720;48.886;9.388;2022-09-03T04:54:39;98017.22;;;18.93;100.00
34482;BME280;20720;48.886;9.388;2022-09-03T04:57:04;98022.00;;;18.91;99.72
34482;BME280;20720;48.886;9.388;2022-09-03T04:59:29;98023.38;;;18.99;100.00
34482;BME280;20720;48.886;9.388;2022-09-03T05:01:54;98017.50;;;18.92;100.00
34482;BME280;20720;48.886;9.388;2022-09-03T05:04:20;98022.84;;;18.97;100.00
34482;BME280;20720;48.886;9.388;2022-09-03T05:06:45;98019.34;;;18.86;100.00
34482;BME280;20720;48.886;9.388;2022-09-03T05:09:11;98011.91;;;18.88;100.00
34482;BME280;20720;48.886;9.388;2022-09-03T05:11:36;98017.28;;;18.98;100.00
34482;BME280;20720;48.886;9.388;2022-09-03T05:14:01;98013.22;;;18.86;100.00
34482;BME280;20720;48.886;9.388;2022-09-03T05:16:27;98017.50;;;18.92;100.00
34482;BME280;20720;48.886;9.388;2022-09-03T05:18:54;98010.34;;;18.97;100.00
34482;BME280;20720;48.886;9.388;2022-09-03T05:21:20;98012.16;;;18.87;100.00
34482;BME280;20720;48.886;9.388;2022-09-03T05:23:47;98018.03;;;18.94;100.00
34482;BME280;20720;48.886;9.388;2022-09-03T05:26:17;98019.34;;;18.86;100.00
34482;BME280;20720;48.886;9.388;2022-09-03T05:28:42;98019.66;;;19.00;100.00
34482;BME280;20720;48.886;9.388;2022-09-03T05:31:09;98020.22;;;19.07;100.00
34482;BME280;20720;48.886;9.388;2022-09-03T05:33:35;98015.66;;;18.97;100.00
34482;BME280;20720;48.886;9.388;2022-09-03T05:36:02;98023.75;;;19.22;100.00
34482;BME280;20720;48.886;9.388;2022-09-03T05:38:27;98014.78;;;19.48;98.55
34482;BME280;20720;48.886;9.388;2022-09-03T05:40:52;98013.72;;;19.49;98.85
34482;BME280;20720;48.886;9.388;2022-09-03T05:43:18;98013.13;;;19.32;99.92
34482;BME280;20720;48.886;9.388;2022-09-03T05:45:44;98013.13;;;19.32;99.60
34482;BME280;20720;48.886;9.388;2022-09-03T05:48:09;98017.44;;;19.43;99.35
34482;BME280;20720;48.886;9.388;2022-09-03T05:50:34;98027.50;;;19.31;99.87
34482;BME280;20720;48.886;9.388;2022-09-03T05:52:59;98033.97;;;19.50;99.47
34482;BME280;20720;48.886;9.388;2022-09-03T05:55:24;98027.63;;;19.72;97.92
34482;BME280;20720;48.886;9.388;2022-09-03T05:57:50;98035.88;;;19.60;98.60
34482;BME280;20720;48.886;9.388;2022-09-03T06:00:15;98039.31;;;19.55;98.36
34482;BME280;20720;48.886;9.388;2022-09-03T06:02:42;98033.75;;;19.62;98.76
34482;BME280;20720;48.886;9.388;2022-09-03T06:05:07;98036.41;;;19.72;98.44
34482;BME280;20720;48.886;9.388;2022-09-03T06:07:32;98035.09;;;19.90;98.21
34482;BME280;20720;48.886;9.388;2022-09-03T06:09:58;98030.31;;;20.07;96.60
34482;BME280;20720;48.886;9.388;2022-09-03T06:12:23;98030.03;;;20.03;96.30
34482;BME280;20720;48.886;9.388;2022-09-03T06:14:48;98035.09;;;19.90;97.46
34482;BME280;20720;48.886;9.388;2022-09-03T06:17:13;98038.84;;;20.04;98.12
34482;BME280;20720;48.886;9.388;2022-09-03T06:19:39;98037.22;;;19.88;98.74
34482;BME280;20720;48.886;9.388;2022-09-03T06:22:04;98039.97;;;20.23;96.37
34482;BME280;20720;48.886;9.388;2022-09-03T06:24:29;98042.56;;;20.03;98.08
34482;BME280;20720;48.886;9.388;2022-09-03T06:26:55;98042.84;;;19.96;98.56
34482;BME280;20720;48.886;9.388;2022-09-03T06:29:20;98040.47;;;20.10;98.69
34482;BME280;20720;48.886;9.388;2022-09-03T06:31:45;98052.19;;;19.94;99.67
34482;BME280;20720;48.886;9.388;2022-09-03T06:34:12;98047.66;;;19.99;99.86
34482;BME280;20720;48.886;9.388;2022-09-03T06:36:37;98046.81;;;19.84;100.00
34482;BME280;20720;48.886;9.388;2022-09-03T06:39:02;98049.75;;;19.82;100.00
34482;BME280;20720;48.886;9.388;2022-09-03T06:41:29;98042.56;;;20.03;100.00
34482;BME280;20720;48.886;9.388;2022-09-03T06:43:57;98033.25;;;20.00;100.00
34482;BME280;20720;48.886;9.388;2022-09-03T06:46:27;98038.59;;;20.15;99.69
34482;BME280;20720;48.886;9.388;2022-09-03T06:48:52;98046.06;;;20.43;99.16
34482;BME280;20720;48.886;9.388;2022-09-03T06:51:20;98040.19;;;20.11;100.00
34482;BME280;20720;48.886;9.388;2022-09-03T06:53:46;98038.88;;;20.34;98.58
34482;BME280;20720;48.886;9.388;2022-09-03T06:56:13;98042.59;;;20.33;98.78
34482;BME280;20720;48.886;9.388;2022-09-03T06:58:39;98045.03;;;20.34;98.98
34482;BME280;20720;48.886;9.388;2022-09-03T07:01:07;98047.41;;;20.51;98.16
34482;BME280;20720;48.886;9.388;2022-09-03T07:03:37;98045.00;;;20.19;100.00
34482;BME280;20720;48.886;9.388;2022-09-03T07:06:04;98049.53;;;20.44;98.50
34482;BME280;20720;48.886;9.388;2022-09-03T07:08:30;98047.94;;;20.38;98.89
34482;BME280;20720;48.886;9.388;2022-09-03T07:10:57;98045.81;;;20.30;100.00
34482;BME280;20720;48.886;9.388;2022-09-03T07:13:22;98046.28;;;20.67;98.51
34482;BME280;20720;48.886;9.388;2022-09-03T07:15:56;98049.47;;;20.79;96.63
34482;BME280;20720;48.886;9.388;2022-09-03T07:18:21;98044.97;;;20.59;98.78
34482;BME280;20720;48.886;9.388;2022-09-03T07:20:46;98044.09;;;20.94;96.88
34482;BME280;20720;48.886;9.388;2022-09-03T07:23:12;98047.81;;;20.98;96.10
34482;BME280;20720;48.886;9.388;2022-09-03T07:25:40;98052.56;;;21.16;94.57
34482;BME280;20720;48.886;9.388;2022-09-03T07:28:05;98059.03;;;20.95;96.17
34482;BME280;20720;48.886;9.388;2022-09-03T07:30:30;98053.13;;;21.08;95.02
34482;BME280;20720;48.886;9.388;2022-09-03T07:32:56;98060.31;;;21.23;94.85
34482;BME280;20720;48.886;9.388;2022-09-03T07:35:25;98067.50;;;21.27;94.15
34482;BME280;20720;48.886;9.388;2022-09-03T07:37:50;98072.47;;;21.98;92.02
34482;BME280;20720;48.886;9.388;2022-09-03T07:40:16;98070.81;;;22.07;89.48
34482;BME280;20720;48.886;9.388;2022-09-03T07:42:43;98063.97;;;21.91;91.58
34482;BME280;20720;48.886;9.388;2022-09-03T07:45:09;98058.09;;;22.56;87.62
34482;BME280;20720;48.886;9.388;2022-09-03T07:47:35;98063.28;;;23.23;82.47
34482;BME280;20720;48.886;9.388;2022-09-03T07:50:00;98063.94;;;23.58;80.99
34482;BME280;20720;48.886;9.388;2022-09-03T07:52:25;98062.50;;;23.47;81.59
34482;BME280;20720;48.886;9.388;2022-09-03T07:54:51;98059.44;;;23.90;79.43
34482;BME280;20720;48.886;9.388;2022-09-03T07:57:17;98064.09;;;23.66;81.37
34482;BME280;20720;48.886;9.388;2022-09-03T07:59:42;98061.47;;;23.43;80.84
34482;BME280;20720;48.886;9.388;2022-09-03T08:02:07;98069.66;;;23.70;80.33
34482;BME280;20720;48.886;9.388;2022-09-03T08:04:32;98068.28;;;23.54;81.54
34482;BME280;20720;48.886;9.388;2022-09-03T08:07:00;98073.13;;;23.28;84.40
34482;BME280;20720;48.886;9.388;2022-09-03T08:09:25;98070.25;;;23.67;82.51
34482;BME280;20720;48.886;9.388;2022-09-03T08:11:50;98071.50;;;23.56;84.58
34482;BME280;20720;48.886;9.388;2022-09-03T08:14:16;98071.41;;;23.61;83.47
34482;BME280;20720;48.886;9.388;2022-09-03T08:16:43;98074.25;;;23.88;81.02
34482;BME280;20720;48.886;9.388;2022-09-03T08:19:09;98080.72;;;24.05;80.37
34482;BME280;20720;48.886;9.388;2022-09-03T08:21:36;98079.00;;;24.79;76.89
34482;BME280;20720;48.886;9.388;2022-09-03T08:24:01;98078.72;;;23.74;79.69
34482;BME280;20720;48.886;9.388;2022-09-03T08:26:27;98076.56;;;24.32;82.93
34482;BME280;20720;48.886;9.388;2022-09-03T08:28:52;98071.00;;;23.06;89.74
34482;BME280;20720;48.886;9.388;2022-09-03T08:31:19;98071.03;;;23.01;92.55
34482;BME280;20720;48.886;9.388;2022-09-03T08:33:48;98077.28;;;24.37;84.21
34482;BME280;20720;48.886;9.388;2022-09-03T08:36:16;98073.00;;;24.17;83.31
34482;BME280;20720;48.886;9.388;2022-09-03T08:38:42;98080.19;;;24.86;79.48
34482;BME280;20720;48.886;9.388;2022-09-03T08:41:14;98083.78;;;24.95;79.01
34482;BME280;20720;48.886;9.388;2022-09-03T08:43:51;98081.56;;;25.79;75.78
34482;BME280;20720;48.886;9.388;2022-09-03T08:46:22;98082.72;;;26.44;71.98
34482;BME280;20720;48.886;9.388;2022-09-03T08:48:51;98089.19;;;26.65;69.71
34482;BME280;20720;48.886;9.388;2022-09-03T08:51:16;98087.28;;;26.13;72.10
34482;BME280;20720;48.886;9.388;2022-09-03T08:53:45;98087.28;;;26.13;73.78
34482;BME280;20720;48.886;9.388;2022-09-03T08:56:13;98085.50;;;26.53;71.19
34482;BME280;20720;48.886;9.388;2022-09-03T08:58:44;98087.41;;;25.94;77.86
34482;BME280;20720;48.886;9.388;2022-09-03T09:01:15;98086.28;;;26.53;70.74
34482;BME280;20720;48.886;9.388;2022-09-03T09:06:36;98088.44;;;26.43;72.91
34482;BME280;20720;48.886;9.388;2022-09-03T09:16:35;98109.38;;;26.24;73.86
34482;BME280;20720;48.886;9.388;2022-09-03T09:19:24;98109.31;;;26.37;71.62
34482;BME280;20720;48.886;9.388;2022-09-03T09:21:54;98110.53;;;26.31;73.29
34482;BME280;20720;48.886;9.388;2022-09-03T09:24:23;98122.09;;;25.60;76.39
34482;BME280;20720;48.886;9.388;2022-09-03T09:27:08;98106.75;;;25.96;76.69
34482;BME280;20720;48.886;9.388;2022-09-03T09:29:35;98110.59;;;27.71;68.14
34482;BME280;20720;48.886;9.388;2022-09-03T09:32:00;98106.22;;;28.43;65.35
34482;BME280;20720;48.886;9.388;2022-09-03T09:34:25;98104.44;;;27.23;68.64
34482;BME280;20720;48.886;9.388;2022-09-03T09:36:52;98107.19;;;28.47;65.21
34482;BME280;20720;48.886;9.388;2022-09-03T09:39:18;98103.81;;;28.76;64.74
34482;BME280;20720;48.886;9.388;2022-09-03T09:41:56;98104.84;;;29.01;63.13
34482;BME280;20720;48.886;9.388;2022-09-03T09:44:24;98104.34;;;29.16;63.03
34482;BME280;20720;48.886;9.388;2022-09-03T09:46:49;98104.75;;;29.35;62.25
34482;BME280;20720;48.886;9.388;2022-09-03T09:49:29;98103.72;;;29.02;64.28
34482;BME280;20720;48.886;9.388;2022-09-03T09:52:02;98100.34;;;28.58;65.31
34482;BME280;20720;48.886;9.388;2022-09-03T09:54:29;98101.81;;;28.22;67.13
34482;BME280;20720;48.886;9.388;2022-09-03T09:56:58;98089.97;;;27.92;68.38
34482;BME280;20720;48.886;9.388;2022-09-03T09:59:23;98100.75;;;27.58;70.61
34482;BME280;20720;48.886;9.388;2022-09-03T10:01:48;98099.84;;;30.07;61.84
34482;BME280;20720;48.886;9.388;2022-09-03T10:04:24;98100.69;;;29.99;60.78
34482;BME280;20720;48.886;9.388;2022-09-03T10:06:53;98094.78;;;31.76;55.33
34482;BME280;20720;48.886;9.388;2022-09-03T10:09:20;98094.09;;;33.02;50.11
34482;BME280;20720;48.886;9.388;2022-09-03T10:11:53;98090.50;;;31.63;51.90
34482;BME280;20720;48.886;9.388;2022-09-03T10:14:27;98095.75;;;30.01;56.55
34482;BME280;20720;48.886;9.388;2022-09-03T10:17:03;98084.16;;;31.71;52.31
34482;BME280;20720;48.886;9.388;2022-09-03T10:22:32;98091.88;;;31.21;53.82
34482;BME280;20720;48.886;9.388;2022-09-03T10:25:05;98083.50;;;31.62;52.43
34482;BME280;20720;48.886;9.388;2022-09-03T10:27:31;98090.28;;;31.44;51.38
34482;BME280;20720;48.886;9.388;2022-09-03T10:29:57;98081.31;;;30.95;54.79
34482;BME280;20720;48.886;9.388;2022-09-03T10:32:31;98069.47;;;30.67;54.59
34482;BME280;20720;48.886;9.388;2022-09-03T10:35:05;98071.50;;;27.04;67.64
34482;BME280;20720;48.886;9.388;2022-09-03T10:42:34;98082.19;;;28.67;61.70
34482;BME280;20720;48.886;9.388;2022-09-03T11:00:14;98080.38;;;28.89;59.43
34482;BME280;20720;48.886;9.388;2022-09-03T11:02:52;98068.25;;;30.44;54.92
34482;BME280;20720;48.886;9.388;2022-09-03T11:05:23;98081.31;;;31.19;53.44
34482;BME280;20720;48.886;9.388;2022-09-03T11:07:58;98074.09;;;30.34;54.54
34482;BME280;20720;48.886;9.388;2022-09-03T11:10:26;98068.63;;;30.01;55.39
34482;BME280;20720;48.886;9.388;2022-09-03T11:12:55;98063.75;;;29.16;57.91
34482;BME280;20720;48.886;9.388;2022-09-03T11:15:25;98060.03;;;29.20;57.32
34482;BME280;20720;48.886;9.388;2022-09-03T11:17:57;98057.69;;;29.10;59.25
34482;BME280;20720;48.886;9.388;2022-09-03T11:20:25;98046.78;;;28.09;62.30
34482;BME280;20720;48.886;9.388;2022-09-03T11:22:54;98045.44;;;28.66;62.56
34482;BME280;20720;48.886;9.388;2022-09-03T11:25:21;98046.66;;;29.94;57.82
34482;BME280;20720;48.886;9.388;2022-09-03T11:30:22;98041.38;;;28.09;63.83
34482;BME280;20720;48.886;9.388;2022-09-03T11:32:53;98031.53;;;29.23;60.33
34482;BME280;20720;48.886;9.388;2022-09-03T11:35:24;98032.59;;;28.38;62.49
34482;BME280;20720;48.886;9.388;2022-09-03T11:37:53;98030.91;;;27.17;67.66
34482;BME280;20720;48.886;9.388;2022-09-03T11:40:27;98033.56;;;27.73;65.78
34482;BME280;20720;48.886;9.388;2022-09-03T11:42:53;98032.41;;;28.51;62.46
34482;BME280;20720;48.886;9.388;2022-09-03T11:47:55;98027.53;;;27.42;66.88
34482;BME280;20720;48.886;9.388;2022-09-03T11:50:24;98024.06;;;27.93;64.88
34482;BME280;20720;48.886;9.388;2022-09-03T11:52:51;98026.44;;;28.03;64.75
34482;BME280;20720;48.886;9.388;2022-09-03T11:55:24;98026.09;;;28.30;64.71
34482;BME280;20720;48.886;9.388;2022-09-03T11:57:50;98029.16;;;28.84;64.11
34482;BME280;20720;48.886;9.388;2022-09-03T12:00:15;98035.50;;;28.88;63.08
34482;BME280;20720;48.886;9.388;2022-09-03T12:03:03;98049.25;;;28.74;63.73
34482;BME280;20720;48.886;9.388;2022-09-03T12:05:49;98049.78;;;28.25;64.63
34482;BME280;20720;48.886;9.388;2022-09-03T12:16:28;98056.09;;;26.21;76.47
34482;BME280;20720;48.886;9.388;2022-09-03T12:19:03;98057.88;;;25.54;80.58
34482;BME280;20720;48.886;9.388;2022-09-03T12:21:36;98055.41;;;25.44;82.64
34482;BME280;20720;48.886;9.388;2022-09-03T12:24:01;98056.91;;;25.23;84.89
34482;BME280;20720;48.886;9.388;2022-09-03T12:26:27;98060.88;;;25.52;83.79
34482;BME280;20720;48.886;9.388;2022-09-03T12:28:54;98064.06;;;25.13;86.06
34482;BME280;20720;48.886;9.388;2022-09-03T12:36:13;98074.94;;;25.08;87.03
34482;BME280;20720;48.886;9.388;2022-09-03T12:38:39;98072.06;;;25.18;86.64
34482;BME280;20720;48.886;9.388;2022-09-03T12:41:05;98078.41;;;25.50;85.65
34482;BME280;20720;48.886;9.388;2022-09-03T12:43:48;98083.00;;;25.08;88.16
34482;BME280;20720;48.886;9.388;2022-09-03T12:46:15;98078.72;;;24.62;92.45
34482;BME280;20720;48.886;9.388;2022-09-03T12:48:45;98090.75;;;24.96;90.92
34482;BME280;20720;48.886;9.388;2022-09-03T12:51:11;98086.78;;;25.21;88.71
34482;BME280;20720;48.886;9.388;2022-09-03T12:53:36;98086.38;;;25.14;89.84
34482;BME280;20720;48.886;9.388;2022-09-03T12:56:01;98102.06;;;24.48;95.97
34482;BME280;20720;48.886;9.388;2022-09-03T13:01:11;98098.34;;;22.46;100.00
34482;BME280;20720;48.886;9.388;2022-09-03T13:03:46;98094.13;;;22.01;100.00
34482;BME280;20720;48.886;9.388;2022-09-03T13:06:14;98076.47;;;21.57;100.00
34482;BME280;20720;48.886;9.388;2022-09-03T13:08:46;98074.19;;;21.30;100.00
34482;BME280;20720;48.886;9.388;2022-09-03T13:11:14;98063.50;;;21.25;100.00
34482;BME280;20720;48.886;9.388;2022-09-03T13:13:47;98068.88;;;21.25;100.00
34482;BME280;20720;48.886;9.388;2022-09-03T13:16:36;98069.22;;;20.88;100.00
34482;BME280;20720;48.886;9.388;2022-09-03T13:21:49;98069.75;;;20.85;100.00
34482;BME280;20720;48.886;9.388;2022-09-03T13:29:28;97996.16;;;20.39;100.00
34482;BME280;20720;48.886;9.388;2022-09-03T13:32:02;97966.81;;;20.34;100.00
34482;BME280;20720;48.886;9.388;2022-09-03T13:34:35;97957.25;;;20.23;100.00
34482;BME280;20720;48.886;9.388;2022-09-03T13:37:19;97948.66;;;20.16;100.00
34482;BME280;20720;48.886;9.388;2022-09-03T13:39:48;97943.09;;;20.32;100.00
34482;BME280;20720;48.886;9.388;2022-09-03T13:42:19;97923.53;;;20.52;100.00
34482;BME280;20720;48.886;9.388;2022-09-03T13:44:55;97923.03;;;20.45;100.00
34482;BME280;20720;48.886;9.388;2022-09-03T13:50:06;97886.03;;;20.77;100.00
34482;BME280;20720;48.886;9.388;2022-09-03T13:52:52;97876.25;;;20.63;100.00
34482;BME280;20720;48.886;9.388;2022-09-03T13:55:36;97882.28;;;20.78;100.00
34482;BME280;20720;48.886;9.388;2022-09-03T13:58:08;97881.19;;;20.89;100.00
34482;BME280;20720;48.886;9.388;2022-09-03T14:03:32;97983.56;;;24.49;100.00
34482;BME280;20720;48.886;9.388;2022-09-03T14:06:15;98044.69;;;27.07;100.00
34482;BME280;20720;48.886;9.388;2022-09-03T14:14:12;98073.50;;;25.38;100.00
34482;BME280;20720;48.886;9.388;2022-09-03T14:16:46;98054.88;;;23.91;100.00
34482;BME280;20720;48.886;9.388;2022-09-03T14:21:59;98040.72;;;22.82;100.00
34482;BME280;20720;48.886;9.388;2022-09-03T14:24:27;98040.19;;;22.80;100.00
34482;BME280;20720;48.886;9.388;2022-09-03T14:26:58;98026.91;;;22.94;100.00
34482;BME280;20720;48.886;9.388;2022-09-03T14:29:27;98040.25;;;22.99;100.00
34482;BME280;20720;48.886;9.388;2022-09-03T14:37:02;98048.94;;;23.14;100.00
34482;BME280;20720;48.886;9.388;2022-09-03T14:39:52;98043.19;;;22.45;100.00
34482;BME280;20720;48.886;9.388;2022-09-03T14:50:12;98037.38;;;22.38;100.00
34482;BME280;20720;48.886;9.388;2022-09-03T14:52:52;98033.72;;;22.24;100.00
34482;BME280;20720;48.886;9.388;2022-09-03T14:55:28;98040.81;;;22.10;100.00
34482;BME280;20720;48.886;9.388;2022-09-03T15:08:06;98044.81;;;22.41;100.00
34482;BME280;20720;48.886;9.388;2022-09-03T15:10:37;98043.19;;;22.45;100.00
34482;BME280;20720;48.886;9.388;2022-09-03T15:13:11;98024.63;;;22.25;100.00
34482;BME280;20720;48.886;9.388;2022-09-03T15:18:12;97995.41;;;22.28;100.00
34482;BME280;20720;48.886;9.388;2022-09-03T15:28:27;98016.59;;;21.52;100.00
34482;BME280;20720;48.886;9.388;2022-09-03T15:31:00;97991.88;;;21.71;100.00
34482;BME280;20720;48.886;9.388;2022-09-03T15:38:38;98084.47;;;28.14;100.00
34482;BME280;20720;48.886;9.388;2022-09-03T15:41:06;98125.06;;;30.61;77.17